Time;durP1;ratioP1;P1;durP2;ratioP2;P2;SDS_P1;SDS_P2;PMS_P1;PMS_P2;Temp;Humidity;BMP_temperature;BMP_pressure;BME280_temperature;BME280_humidity;BME280_pressure;Samples;Min_cycle;Max_cycle;Signal;HPM_P1;HPM_P2
2022/11/09 00:02:19;;;;;;;;;;;12.50;83.10;;;;;;5027959;28;19909;-80
2022/11/09 00:04:44;;;;;;;;;;;12.50;83.30;;;;;;5026551;28;19960;-80
2022/11/09 00:07:10;;;;;;;;;;;12.50;83.20;;;;;;5037672;28;19905;-80
2022/11/09 00:09:35;;;;;;;;;;;12.40;83.40;;;;;;5037591;28;19920;-80
2022/11/09 00:12:03;;;;;;;;;;;12.50;83.30;;;;;;5039105;28;19935;-79
2022/11/09 00:14:29;;;;;;;;;;;12.50;83.00;;;;;;5029119;28;19909;-80
2022/11/09 00:16:55;;;;;;;;;;;12.60;83.20;;;;;;5038139;28;19916;-80
2022/11/09 00:19:21;;;;;;;;;;;12.50;83.30;;;;;;5032310;28;20383;-81
2022/11/09 00:21:46;;;;;;;;;;;12.50;83.40;;;;;;5023533;28;19913;-79
2022/11/09 00:24:12;;;;;;;;;;;12.40;83.60;;;;;;5035791;28;19972;-80
2022/11/09 00:26:37;;;;;;;;;;;12.40;83.80;;;;;;5031651;28;19917;-80
2022/11/09 00:29:02;;;;;;;;;;;12.50;83.80;;;;;;5030205;28;19964;-80
2022/11/09 00:31:28;;;;;;;;;;;12.50;83.60;;;;;;5033236;28;20011;-80
2022/11/09 00:33:54;;;;;;;;;;;12.40;83.80;;;;;;5016396;28;19911;-80
2022/11/09 00:36:20;;;;;;;;;;;12.50;83.70;;;;;;5035182;28;20278;-80
2022/11/09 00:38:56;;;;;;;;;;;12.50;83.50;;;;;;5034573;28;19909;-81
2022/11/09 00:41:22;;;;;;;;;;;12.50;83.60;;;;;;5009384;28;20004;-79
2022/11/09 00:43:47;;;;;;;;;;;12.70;83.10;;;;;;5026707;28;20008;-79
2022/11/09 00:46:13;;;;;;;;;;;12.80;82.60;;;;;;5018411;28;20014;-79
2022/11/09 00:48:39;;;;;;;;;;;12.60;83.20;;;;;;5033965;28;19913;-80
2022/11/09 00:51:04;;;;;;;;;;;12.60;83.30;;;;;;5044548;28;20016;-80
2022/11/09 00:53:30;;;;;;;;;;;12.60;83.30;;;;;;5028530;28;19909;-80
2022/11/09 00:55:56;;;;;;;;;;;12.60;83.60;;;;;;5031043;28;19948;-81
2022/11/09 00:58:22;;;;;;;;;;;12.60;83.80;;;;;;5023961;28;19976;-80
2022/11/09 01:00:48;;;;;;;;;;;12.60;83.60;;;;;;5026748;28;19909;-80
2022/11/09 01:03:13;;;;;;;;;;;12.60;83.40;;;;;;5031233;28;19917;-80
2022/11/09 01:05:39;;;;;;;;;;;12.70;83.30;;;;;;5034709;28;19913;-80
2022/11/09 01:08:05;;;;;;;;;;;12.60;83.70;;;;;;5023437;28;19925;-80
2022/11/09 01:10:30;;;;;;;;;;;12.60;83.80;;;;;;5034699;28;19913;-80
2022/11/09 01:12:55;;;;;;;;;;;12.50;83.90;;;;;;5021439;28;20269;-81
2022/11/09 01:15:21;;;;;;;;;;;12.50;84.00;;;;;;5032217;28;20297;-80
2022/11/09 01:17:47;;;;;;;;;;;12.50;83.90;;;;;;5030769;28;19908;-80
2022/11/09 01:20:13;;;;;;;;;;;12.40;84.20;;;;;;5027707;28;19913;-81
2022/11/09 01:22:39;;;;;;;;;;;12.60;84.20;;;;;;5026877;28;19955;-80
2022/11/09 01:25:04;;;;;;;;;;;12.50;84.00;;;;;;5032986;28;19917;-80
2022/11/09 01:27:31;;;;;;;;;;;12.40;84.40;;;;;;5028345;28;19923;-80
2022/11/09 01:29:56;;;;;;;;;;;12.30;84.90;;;;;;5028323;28;20392;-79
2022/11/09 01:32:21;;;;;;;;;;;12.30;84.80;;;;;;5036880;28;19948;-79
2022/11/09 01:34:47;;;;;;;;;;;12.40;84.50;;;;;;5035974;28;19973;-80
2022/11/09 01:37:12;;;;;;;;;;;12.50;84.40;;;;;;5031349;28;19919;-80
2022/11/09 01:39:37;;;;;;;;;;;12.60;83.80;;;;;;5034230;28;19909;-80
2022/11/09 01:42:03;;;;;;;;;;;12.50;83.90;;;;;;5034480;28;19932;-79
2022/11/09 01:44:29;;;;;;;;;;;12.60;84.30;;;;;;5033355;28;19920;-80
2022/11/09 01:46:56;;;;;;;;;;;12.50;84.40;;;;;;5030567;28;19919;-80
2022/11/09 01:49:40;;;;;;;;;;;12.60;83.90;;;;;;5027909;28;19913;-80
2022/11/09 01:52:09;;;;;;;;;;;12.50;84.30;;;;;;5029862;28;19980;-80
2022/11/09 01:54:38;;;;;;;;;;;12.50;84.50;;;;;;5021096;28;20294;-80
2022/11/09 01:57:06;;;;;;;;;;;12.60;84.60;;;;;;5031764;28;19932;-81
2022/11/09 01:59:35;;;;;;;;;;;12.70;84.20;;;;;;5031602;28;19912;-81
2022/11/09 02:02:01;;;;;;;;;;;12.80;83.70;;;;;;5032428;28;19967;-81
2022/11/09 02:04:32;;;;;;;;;;;12.90;83.40;;;;;;5030221;28;19916;-80
2022/11/09 02:06:58;;;;;;;;;;;12.90;83.60;;;;;;5025332;28;20265;-80
2022/11/09 02:09:42;;;;;;;;;;;13.00;83.30;;;;;;5044802;28;19921;-80
2022/11/09 02:12:08;;;;;;;;;;;13.00;83.30;;;;;;5035461;28;19937;-81
2022/11/09 02:14:34;;;;;;;;;;;13.00;83.40;;;;;;5026514;28;19960;-82
2022/11/09 02:16:59;;;;;;;;;;;13.10;83.10;;;;;;5013531;28;20407;-81
2022/11/09 02:19:25;;;;;;;;;;;13.10;83.20;;;;;;5024875;28;19913;-82
2022/11/09 02:21:50;;;;;;;;;;;13.20;82.90;;;;;;5030798;28;19970;-81
2022/11/09 02:24:16;;;;;;;;;;;13.20;82.90;;;;;;5025969;28;19917;-81
2022/11/09 02:26:49;;;;;;;;;;;13.10;83.00;;;;;;5027714;28;19971;-81
2022/11/09 02:29:17;;;;;;;;;;;13.10;82.90;;;;;;5026600;28;19948;-81
2022/11/09 02:31:46;;;;;;;;;;;13.10;83.30;;;;;;5026640;28;19923;-81
2022/11/09 02:34:12;;;;;;;;;;;13.00;83.40;;;;;;5029055;28;19919;-81
2022/11/09 02:36:38;;;;;;;;;;;13.00;83.40;;;;;;5023468;28;19909;-81
2022/11/09 02:39:04;;;;;;;;;;;13.00;83.40;;;;;;5026063;28;19912;-80
2022/11/09 02:41:30;;;;;;;;;;;13.10;83.40;;;;;;5022578;28;20400;-81
2022/11/09 02:43:56;;;;;;;;;;;13.00;83.60;;;;;;5019460;28;19920;-81
2022/11/09 02:46:22;;;;;;;;;;;13.00;83.80;;;;;;5043554;28;20357;-81
2022/11/09 02:48:48;;;;;;;;;;;13.00;83.50;;;;;;5034973;28;19916;-82
2022/11/09 02:51:13;;;;;;;;;;;13.00;83.80;;;;;;5031972;28;19909;-81
2022/11/09 02:53:38;;;;;;;;;;;12.90;83.70;;;;;;5026633;28;19988;-81
2022/11/09 02:56:04;;;;;;;;;;;12.90;84.00;;;;;;5026204;28;19909;-81
2022/11/09 02:58:29;;;;;;;;;;;12.90;83.90;;;;;;5006716;28;19920;-81
2022/11/09 03:00:55;;;;;;;;;;;12.90;83.80;;;;;;5026406;28;19979;-81
2022/11/09 03:03:20;;;;;;;;;;;12.90;84.00;;;;;;5043238;28;19919;-81
2022/11/09 03:05:45;;;;;;;;;;;12.90;83.90;;;;;;5000260;28;19921;-81
2022/11/09 03:08:11;;;;;;;;;;;12.80;83.90;;;;;;5026670;28;20304;-80
2022/11/09 03:10:36;;;;;;;;;;;12.80;84.40;;;;;;5029329;28;19913;-81
2022/11/09 03:13:02;;;;;;;;;;;12.80;84.30;;;;;;5027240;28;20368;-81
2022/11/09 03:15:27;;;;;;;;;;;12.80;84.40;;;;;;5017894;28;19913;-82
2022/11/09 03:17:53;;;;;;;;;;;12.90;84.00;;;;;;5025148;28;19912;-81
2022/11/09 03:20:18;;;;;;;;;;;12.90;84.10;;;;;;5019433;28;19906;-81
2022/11/09 03:22:44;;;;;;;;;;;12.90;84.10;;;;;;5013896;28;19916;-81
2022/11/09 03:25:09;;;;;;;;;;;12.80;84.30;;;;;;5026889;28;19956;-81
2022/11/09 03:27:34;;;;;;;;;;;12.70;84.70;;;;;;5008157;28;19996;-79
2022/11/09 03:30:00;;;;;;;;;;;12.70;84.70;;;;;;5026322;28;19916;-80
2022/11/09 03:32:25;;;;;;;;;;;12.80;84.20;;;;;;5024984;28;19948;-81
2022/11/09 03:34:51;;;;;;;;;;;12.80;84.70;;;;;;5028709;28;20316;-80
2022/11/09 03:37:16;;;;;;;;;;;12.70;84.70;;;;;;5031430;28;20012;-81
2022/11/09 03:39:41;;;;;;;;;;;12.80;84.80;;;;;;5025957;28;19913;-81
2022/11/09 03:42:07;;;;;;;;;;;12.70;85.00;;;;;;5011992;28;19971;-81
2022/11/09 03:44:32;;;;;;;;;;;12.60;85.30;;;;;;5031606;28;19916;-81
2022/11/09 03:46:58;;;;;;;;;;;12.70;85.40;;;;;;5030708;28;19913;-81
2022/11/09 03:49:23;;;;;;;;;;;12.60;85.30;;;;;;5029218;28;19910;-81
2022/11/09 03:51:49;;;;;;;;;;;12.60;85.30;;;;;;5027287;28;19905;-81
2022/11/09 03:54:14;;;;;;;;;;;12.50;85.60;;;;;;5032116;28;19909;-81
2022/11/09 03:56:40;;;;;;;;;;;12.60;85.70;;;;;;5030963;28;19909;-81
2022/11/09 03:59:05;;;;;;;;;;;12.60;85.60;;;;;;5027499;28;19912;-81
2022/11/09 04:01:31;;;;;;;;;;;12.50;85.70;;;;;;5033230;28;19916;-81
2022/11/09 04:03:56;;;;;;;;;;;12.60;85.50;;;;;;5029270;28;19921;-81
2022/11/09 04:06:22;;;;;;;;;;;12.60;85.70;;;;;;5031084;28;19963;-81
2022/11/09 04:08:47;;;;;;;;;;;12.60;85.40;;;;;;5033222;28;19939;-81
2022/11/09 04:11:13;;;;;;;;;;;12.60;85.60;;;;;;5024944;28;19932;-81
2022/11/09 04:13:38;;;;;;;;;;;12.60;85.10;;;;;;5025665;28;19916;-80
2022/11/09 04:16:04;;;;;;;;;;;12.70;85.40;;;;;;5029972;28;19916;-80
2022/11/09 04:18:29;;;;;;;;;;;12.60;85.40;;;;;;5031602;28;19916;-80
2022/11/09 04:20:56;;;;;;;;;;;12.70;85.40;;;;;;5031096;28;19909;-80
2022/11/09 04:23:21;;;;;;;;;;;12.60;85.40;;;;;;5033158;28;20312;-81
2022/11/09 04:25:47;;;;;;;;;;;12.60;85.50;;;;;;5030653;28;20358;-80
2022/11/09 04:28:12;;;;;;;;;;;12.50;85.80;;;;;;5032076;28;19913;-81
2022/11/09 04:30:38;;;;;;;;;;;12.60;85.70;;;;;;5022974;28;19916;-81
2022/11/09 04:33:04;;;;;;;;;;;12.50;86.10;;;;;;5027192;28;19940;-81
2022/11/09 04:35:30;;;;;;;;;;;12.50;86.20;;;;;;5027406;28;19970;-81
2022/11/09 04:37:57;;;;;;;;;;;12.40;86.10;;;;;;5031170;28;19909;-80
2022/11/09 04:40:24;;;;;;;;;;;12.50;86.10;;;;;;5032268;28;19948;-82
2022/11/09 04:42:49;;;;;;;;;;;12.50;86.20;;;;;;5030322;28;19909;-81
2022/11/09 04:45:15;;;;;;;;;;;12.50;86.20;;;;;;5028871;28;19959;-81
2022/11/09 04:47:40;;;;;;;;;;;12.40;86.10;;;;;;5014641;28;19940;-81
2022/11/09 04:50:06;;;;;;;;;;;12.50;86.20;;;;;;5022558;28;19917;-80
2022/11/09 04:52:31;;;;;;;;;;;12.50;86.20;;;;;;5028909;28;19913;-81
2022/11/09 04:54:57;;;;;;;;;;;12.50;86.20;;;;;;5029221;28;19916;-81
2022/11/09 04:57:22;;;;;;;;;;;12.60;85.90;;;;;;5026421;28;19909;-81
2022/11/09 04:59:47;;;;;;;;;;;12.70;85.80;;;;;;5027561;28;19970;-82
2022/11/09 05:02:13;;;;;;;;;;;12.70;85.60;;;;;;5031948;28;19920;-80
2022/11/09 05:04:38;;;;;;;;;;;12.80;85.30;;;;;;5040594;28;20365;-81
2022/11/09 05:07:04;;;;;;;;;;;12.80;85.20;;;;;;5035261;28;19912;-81
2022/11/09 05:09:29;;;;;;;;;;;12.80;85.40;;;;;;5032378;28;19924;-81
2022/11/09 05:11:55;;;;;;;;;;;12.70;85.60;;;;;;5028815;28;19909;-81
2022/11/09 05:14:20;;;;;;;;;;;12.70;85.70;;;;;;5032465;28;19905;-82
2022/11/09 05:16:45;;;;;;;;;;;12.70;85.80;;;;;;5033104;28;20250;-81
2022/11/09 05:19:11;;;;;;;;;;;12.70;85.80;;;;;;5038768;28;19916;-82
2022/11/09 05:21:36;;;;;;;;;;;12.70;85.60;;;;;;5035403;28;19909;-82
2022/11/09 05:24:02;;;;;;;;;;;12.60;85.80;;;;;;5031771;28;19971;-81
2022/11/09 05:26:29;;;;;;;;;;;12.60;85.90;;;;;;5031818;28;20404;-81
2022/11/09 05:28:56;;;;;;;;;;;12.60;85.90;;;;;;5025710;28;19905;-71
2022/11/09 05:31:22;;;;;;;;;;;12.70;85.70;;;;;;5030809;28;19931;-72
2022/11/09 05:33:49;;;;;;;;;;;12.60;85.80;;;;;;5013417;28;20319;-70
2022/11/09 05:36:14;;;;;;;;;;;12.60;85.90;;;;;;5031534;28;20377;-70
2022/11/09 05:38:39;;;;;;;;;;;12.80;85.40;;;;;;5032143;28;19916;-72
2022/11/09 05:41:05;;;;;;;;;;;12.60;85.70;;;;;;5032791;28;19905;-73
2022/11/09 05:43:30;;;;;;;;;;;12.60;85.70;;;;;;5026631;28;19917;-69
2022/11/09 05:45:56;;;;;;;;;;;12.50;86.30;;;;;;5026119;28;19909;-71
2022/11/09 05:48:21;;;;;;;;;;;12.50;86.20;;;;;;5025164;28;19920;-70
2022/11/09 05:50:46;;;;;;;;;;;12.40;86.30;;;;;;5026921;28;19909;-70
2022/11/09 05:53:12;;;;;;;;;;;12.40;86.10;;;;;;5030475;28;20388;-70
2022/11/09 05:55:38;;;;;;;;;;;12.50;86.30;;;;;;5008041;28;19909;-70
2022/11/09 05:58:03;;;;;;;;;;;12.40;86.50;;;;;;5022423;28;19914;-70
2022/11/09 06:00:29;;;;;;;;;;;12.40;86.60;;;;;;5022910;28;20433;-70
2022/11/09 06:03:00;;;;;;;;;;;12.40;86.40;;;;;;5018329;28;19918;-70
2022/11/09 06:05:25;;;;;;;;;;;12.30;86.60;;;;;;5022029;28;19913;-70
2022/11/09 06:07:51;;;;;;;;;;;12.30;86.60;;;;;;5031757;28;19927;-70
2022/11/09 06:10:17;;;;;;;;;;;12.30;86.60;;;;;;5028468;28;20274;-70
2022/11/09 06:12:42;;;;;;;;;;;12.30;86.90;;;;;;5029958;28;19917;-71
2022/11/09 06:15:08;;;;;;;;;;;12.20;87.20;;;;;;5026335;28;19931;-70
2022/11/09 06:17:33;;;;;;;;;;;12.30;86.90;;;;;;5027844;28;19913;-70
2022/11/09 06:19:58;;;;;;;;;;;12.30;87.00;;;;;;5022388;28;19917;-70
2022/11/09 06:22:24;;;;;;;;;;;12.30;86.90;;;;;;5020436;28;19959;-70
2022/11/09 06:24:49;;;;;;;;;;;12.30;87.10;;;;;;5010018;28;20474;-69
2022/11/09 06:27:15;;;;;;;;;;;12.30;86.70;;;;;;5029201;28;19912;-71
2022/11/09 06:29:40;;;;;;;;;;;12.40;86.80;;;;;;5025469;28;19924;-70
2022/11/09 06:32:05;;;;;;;;;;;12.30;86.70;;;;;;5025170;28;19923;-70
2022/11/09 06:34:31;;;;;;;;;;;12.40;86.60;;;;;;5027725;28;20007;-70
2022/11/09 06:36:56;;;;;;;;;;;12.50;86.60;;;;;;5025287;28;19916;-72
2022/11/09 06:39:22;;;;;;;;;;;12.40;86.70;;;;;;5025273;28;19920;-72
2022/11/09 06:41:47;;;;;;;;;;;12.40;86.90;;;;;;5029219;28;20468;-71
2022/11/09 06:44:13;;;;;;;;;;;12.30;87.00;;;;;;5019599;28;20276;-71
2022/11/09 06:46:38;;;;;;;;;;;12.20;87.30;;;;;;5029406;28;19909;-70
2022/11/09 06:49:03;;;;;;;;;;;12.20;87.40;;;;;;5011675;28;20365;-70
2022/11/09 06:51:29;;;;;;;;;;;12.30;87.40;;;;;;5028013;28;19916;-70
2022/11/09 06:53:54;;;;;;;;;;;12.20;87.40;;;;;;5023107;28;20012;-72
2022/11/09 06:56:20;;;;;;;;;;;12.20;87.30;;;;;;5015932;28;19913;-74
2022/11/09 06:58:45;;;;;;;;;;;12.30;87.50;;;;;;5022178;28;19920;-69
2022/11/09 07:01:12;;;;;;;;;;;12.20;87.60;;;;;;5029143;28;19909;-71
2022/11/09 07:03:38;;;;;;;;;;;12.10;87.50;;;;;;5029744;28;20021;-72
2022/11/09 07:06:04;;;;;;;;;;;12.10;87.90;;;;;;5027940;28;19999;-72
2022/11/09 07:08:30;;;;;;;;;;;12.10;88.00;;;;;;5018077;28;19921;-71
2022/11/09 07:11:01;;;;;;;;;;;12.10;88.10;;;;;;5026804;28;19915;-71
2022/11/09 07:13:26;;;;;;;;;;;12.10;88.00;;;;;;5021975;28;19909;-72
2022/11/09 07:15:52;;;;;;;;;;;12.10;88.20;;;;;;5028316;28;20430;-71
2022/11/09 07:18:17;;;;;;;;;;;12.20;88.10;;;;;;5028817;28;19963;-71
2022/11/09 07:20:43;;;;;;;;;;;12.20;88.00;;;;;;5031145;28;19905;-71
2022/11/09 07:23:08;;;;;;;;;;;12.20;88.00;;;;;;5031522;28;19905;-71
2022/11/09 07:25:34;;;;;;;;;;;12.20;88.10;;;;;;5031198;28;19916;-71
2022/11/09 07:28:07;;;;;;;;;;;12.20;88.10;;;;;;5027512;28;19913;-71
2022/11/09 07:30:33;;;;;;;;;;;12.30;87.80;;;;;;5028266;28;19912;-72
2022/11/09 07:32:58;;;;;;;;;;;12.30;87.90;;;;;;5032600;28;19912;-72
2022/11/09 07:35:25;;;;;;;;;;;12.30;88.00;;;;;;5033385;28;20723;-72
2022/11/09 07:37:50;;;;;;;;;;;12.30;88.00;;;;;;5041453;28;20042;-71
2022/11/09 07:40:15;;;;;;;;;;;12.30;88.10;;;;;;5026926;28;20012;-71
2022/11/09 07:42:41;;;;;;;;;;;12.30;88.00;;;;;;5028748;28;19995;-72
2022/11/09 07:45:06;;;;;;;;;;;12.30;88.10;;;;;;5014195;28;20392;-74
2022/11/09 07:47:32;;;;;;;;;;;12.30;88.20;;;;;;5011831;28;19920;-72
2022/11/09 07:49:57;;;;;;;;;;;12.30;88.20;;;;;;5026049;28;19916;-74
2022/11/09 07:52:23;;;;;;;;;;;12.40;88.00;;;;;;5034954;28;20440;-73
2022/11/09 07:54:48;;;;;;;;;;;12.50;87.70;;;;;;5034451;28;19954;-73
2022/11/09 07:57:13;;;;;;;;;;;12.50;87.70;;;;;;5023214;28;19939;-73
2022/11/09 07:59:39;;;;;;;;;;;12.60;87.40;;;;;;5023601;28;19913;-71
2022/11/09 08:02:04;;;;;;;;;;;12.60;87.20;;;;;;5014465;28;20023;-71
2022/11/09 08:04:30;;;;;;;;;;;12.70;86.70;;;;;;5029616;28;20059;-71
2022/11/09 08:06:55;;;;;;;;;;;12.80;86.50;;;;;;5033069;28;19944;-75
2022/11/09 08:09:21;;;;;;;;;;;12.80;86.50;;;;;;5041538;28;19986;-72
2022/11/09 08:11:46;;;;;;;;;;;12.90;86.30;;;;;;5038175;28;20350;-73
2022/11/09 08:14:11;;;;;;;;;;;12.90;86.10;;;;;;5030032;28;20485;-72
2022/11/09 08:16:37;;;;;;;;;;;12.90;86.40;;;;;;5038232;28;19939;-71
2022/11/09 08:19:03;;;;;;;;;;;12.90;86.30;;;;;;5039390;28;19955;-71
2022/11/09 08:21:28;;;;;;;;;;;12.90;86.40;;;;;;5032473;28;20011;-72
2022/11/09 08:23:53;;;;;;;;;;;12.80;86.50;;;;;;5029764;28;19917;-72
2022/11/09 08:26:19;;;;;;;;;;;12.80;86.70;;;;;;5030371;28;19909;-70
2022/11/09 08:28:44;;;;;;;;;;;12.70;86.90;;;;;;5039086;28;19963;-72
2022/11/09 08:31:10;;;;;;;;;;;12.60;87.20;;;;;;5034025;28;19916;-72
2022/11/09 08:33:37;;;;;;;;;;;12.60;87.30;;;;;;5018451;28;19901;-72
2022/11/09 08:36:09;;;;;;;;;;;12.70;87.10;;;;;;5037536;28;19905;-72
2022/11/09 08:38:35;;;;;;;;;;;12.70;87.40;;;;;;5028878;28;19917;-71
2022/11/09 08:41:00;;;;;;;;;;;12.80;87.20;;;;;;5017199;28;19909;-72
2022/11/09 08:43:26;;;;;;;;;;;12.80;87.20;;;;;;5034656;28;20365;-72
2022/11/09 08:45:51;;;;;;;;;;;12.80;87.00;;;;;;5033675;28;19945;-71
2022/11/09 08:48:16;;;;;;;;;;;12.80;86.90;;;;;;5040080;28;20296;-71
2022/11/09 08:50:42;;;;;;;;;;;12.90;86.90;;;;;;5033284;28;20012;-71
2022/11/09 08:53:07;;;;;;;;;;;13.00;86.10;;;;;;5028750;28;19908;-71
2022/11/09 08:55:33;;;;;;;;;;;13.30;85.50;;;;;;5023011;28;19916;-72
2022/11/09 08:57:59;;;;;;;;;;;13.40;85.20;;;;;;5027829;28;19905;-72
2022/11/09 09:00:25;;;;;;;;;;;13.60;84.50;;;;;;5028498;28;19920;-72
2022/11/09 09:02:51;;;;;;;;;;;13.60;84.30;;;;;;5028761;28;19909;-68
2022/11/09 09:05:16;;;;;;;;;;;13.70;84.50;;;;;;5030723;28;19917;-71
2022/11/09 09:07:42;;;;;;;;;;;13.70;83.80;;;;;;5034871;28;19927;-72
2022/11/09 09:10:08;;;;;;;;;;;13.70;83.70;;;;;;5028001;28;19909;-71
2022/11/09 09:12:33;;;;;;;;;;;13.60;83.70;;;;;;5025631;28;19909;-71
2022/11/09 09:14:59;;;;;;;;;;;13.60;83.90;;;;;;5024791;28;19913;-70
2022/11/09 09:17:24;;;;;;;;;;;13.70;83.90;;;;;;5026867;28;20371;-71
2022/11/09 09:19:50;;;;;;;;;;;13.80;84.00;;;;;;5035551;28;19919;-72
2022/11/09 09:22:15;;;;;;;;;;;13.80;83.50;;;;;;5031979;28;19909;-71
2022/11/09 09:24:41;;;;;;;;;;;13.80;83.60;;;;;;5034563;28;19991;-71
2022/11/09 09:27:06;;;;;;;;;;;13.80;84.00;;;;;;5025989;28;20300;-71
2022/11/09 09:29:31;;;;;;;;;;;13.90;83.90;;;;;;5026244;28;19932;-71
2022/11/09 09:31:57;;;;;;;;;;;14.10;84.10;;;;;;5023764;28;19913;-72
2022/11/09 09:34:22;;;;;;;;;;;14.10;83.70;;;;;;5032009;28;19921;-72
2022/11/09 09:36:50;;;;;;;;;;;14.20;83.60;;;;;;5028309;28;19909;-71
2022/11/09 09:39:16;;;;;;;;;;;14.10;82.60;;;;;;5032660;28;19912;-70
2022/11/09 09:41:55;;;;;;;;;;;14.10;83.10;;;;;;5024775;28;19932;-75
2022/11/09 09:44:38;;;;;;;;;;;14.20;83.00;;;;;;5021773;28;19925;-70
2022/11/09 09:47:20;;;;;;;;;;;14.30;82.80;;;;;;5025942;28;19912;-71
2022/11/09 09:49:48;;;;;;;;;;;14.40;82.00;;;;;;5029864;28;19909;-73
2022/11/09 09:52:22;;;;;;;;;;;14.30;81.20;;;;;;5026042;28;19913;-69
2022/11/09 09:54:51;;;;;;;;;;;14.40;81.20;;;;;;5027345;28;19936;-70
2022/11/09 09:57:18;;;;;;;;;;;14.40;80.20;;;;;;5020346;28;20257;-70
2022/11/09 09:59:47;;;;;;;;;;;14.40;80.00;;;;;;5018723;28;19905;-71
2022/11/09 10:02:18;;;;;;;;;;;14.40;80.80;;;;;;5021052;28;19971;-70
2022/11/09 10:04:43;;;;;;;;;;;14.50;79.90;;;;;;5025638;28;19967;-72
2022/11/09 10:07:23;;;;;;;;;;;14.60;79.70;;;;;;5020951;28;19908;-72
2022/11/09 10:09:48;;;;;;;;;;;14.70;78.60;;;;;;5020339;28;20031;-71
2022/11/09 10:12:18;;;;;;;;;;;14.70;78.50;;;;;;5026536;28;20008;-72
2022/11/09 10:15:02;;;;;;;;;;;14.80;78.00;;;;;;5029710;28;20399;-69
2022/11/09 10:17:46;;;;;;;;;;;14.80;78.90;;;;;;5024602;28;19909;-69
2022/11/09 10:20:20;;;;;;;;;;;15.00;78.90;;;;;;5024106;28;20625;-70
2022/11/09 10:22:49;;;;;;;;;;;15.00;78.00;;;;;;5027711;28;20427;-70
2022/11/09 10:25:19;;;;;;;;;;;15.00;77.90;;;;;;5022909;28;19925;-70
2022/11/09 10:27:55;;;;;;;;;;;15.00;77.00;;;;;;5023174;28;19913;-70
2022/11/09 10:30:21;;;;;;;;;;;15.40;77.20;;;;;;5024923;28;19924;-69
2022/11/09 10:32:58;;;;;;;;;;;15.30;76.10;;;;;;5027111;28;20269;-69
2022/11/09 10:35:28;;;;;;;;;;;15.30;76.00;;;;;;5030278;28;20551;-71
2022/11/09 10:37:54;;;;;;;;;;;15.20;76.60;;;;;;5030660;28;19909;-70
2022/11/09 10:40:38;;;;;;;;;;;15.40;76.40;;;;;;5022129;28;19995;-69
2022/11/09 10:43:13;;;;;;;;;;;15.30;76.60;;;;;;5023515;28;19956;-70
2022/11/09 10:45:43;;;;;;;;;;;15.20;76.10;;;;;;5036505;28;19909;-70
2022/11/09 10:48:09;;;;;;;;;;;14.90;75.80;;;;;;5028215;28;19909;-71
2022/11/09 10:50:48;;;;;;;;;;;14.60;76.40;;;;;;5026484;28;20341;-71
2022/11/09 10:53:15;;;;;;;;;;;14.50;77.20;;;;;;5020594;28;20301;-70
2022/11/09 10:55:53;;;;;;;;;;;14.60;77.70;;;;;;5023011;28;20436;-70
2022/11/09 10:58:31;;;;;;;;;;;14.80;75.50;;;;;;5030799;28;19909;-70
2022/11/09 11:00:59;;;;;;;;;;;15.00;75.30;;;;;;5036538;28;19901;-70
2022/11/09 11:03:24;;;;;;;;;;;15.20;74.30;;;;;;5034824;28;19968;-69
2022/11/09 11:06:00;;;;;;;;;;;15.20;74.80;;;;;;5034634;28;19905;-70
2022/11/09 11:08:33;;;;;;;;;;;15.30;74.60;;;;;;5026173;28;20408;-70
2022/11/09 11:11:06;;;;;;;;;;;15.40;74.50;;;;;;5024208;28;19919;-70
2022/11/09 11:13:31;;;;;;;;;;;15.40;74.80;;;;;;5028774;28;20612;-69
2022/11/09 11:15:57;;;;;;;;;;;15.50;74.20;;;;;;5039090;28;19962;-71
2022/11/09 11:18:24;;;;;;;;;;;15.60;73.60;;;;;;5052767;28;20268;-70
2022/11/09 11:21:09;;;;;;;;;;;15.50;72.40;;;;;;5037839;28;19905;-71
2022/11/09 11:23:35;;;;;;;;;;;15.40;73.20;;;;;;5033762;28;20365;-71
2022/11/09 11:26:05;;;;;;;;;;;15.50;74.00;;;;;;5032992;28;20003;-71
2022/11/09 11:28:30;;;;;;;;;;;15.50;73.50;;;;;;5032794;28;19956;-72
2022/11/09 11:30:55;;;;;;;;;;;15.80;73.70;;;;;;5039148;28;20313;-71
2022/11/09 11:33:21;;;;;;;;;;;16.00;71.90;;;;;;5026267;28;20312;-72
2022/11/09 11:36:01;;;;;;;;;;;16.20;71.40;;;;;;5031615;28;19909;-71
2022/11/09 11:38:35;;;;;;;;;;;16.30;71.30;;;;;;5029651;28;19931;-72
2022/11/09 11:41:33;;;;;;;;;;;16.30;71.50;;;;;;5038831;28;19912;-73
2022/11/09 11:44:03;;;;;;;;;;;16.30;71.10;;;;;;4977642;28;19917;-71
2022/11/09 11:46:45;;;;;;;;;;;16.20;70.30;;;;;;5025340;28;20341;-72
2022/11/09 11:49:21;;;;;;;;;;;16.50;69.90;;;;;;5037925;28;19905;-71
2022/11/09 11:51:58;;;;;;;;;;;16.70;69.40;;;;;;5030140;28;19916;-71
2022/11/09 11:54:30;;;;;;;;;;;16.60;69.20;;;;;;5030373;28;19913;-71
2022/11/09 11:57:10;;;;;;;;;;;16.50;69.80;;;;;;5023000;28;19913;-72
2022/11/09 11:59:41;;;;;;;;;;;16.40;70.50;;;;;;5030154;28;19909;-72
2022/11/09 12:02:15;;;;;;;;;;;16.20;70.90;;;;;;5031340;28;20352;-71
2022/11/09 12:04:59;;;;;;;;;;;16.30;70.80;;;;;;5026997;28;19917;-71
2022/11/09 12:07:25;;;;;;;;;;;16.40;70.20;;;;;;5032098;28;20372;-70
2022/11/09 12:09:56;;;;;;;;;;;16.40;70.40;;;;;;5030884;28;19999;-71
2022/11/09 12:12:33;;;;;;;;;;;16.40;70.50;;;;;;5026772;28;19956;-71
2022/11/09 12:15:11;;;;;;;;;;;16.20;70.90;;;;;;5028895;28;19909;-71
2022/11/09 12:17:39;;;;;;;;;;;16.00;71.60;;;;;;5025644;28;19905;-71
2022/11/09 12:20:05;;;;;;;;;;;16.00;72.00;;;;;;5024992;28;19909;-70
2022/11/09 12:22:33;;;;;;;;;;;16.00;72.60;;;;;;5032586;28;19909;-68
2022/11/09 12:25:01;;;;;;;;;;;15.90;72.60;;;;;;5031101;28;19928;-72
2022/11/09 12:27:32;;;;;;;;;;;16.00;71.30;;;;;;5034511;28;19909;-67
2022/11/09 12:30:15;;;;;;;;;;;15.90;71.60;;;;;;5020474;28;19917;-69
2022/11/09 12:32:45;;;;;;;;;;;16.20;71.20;;;;;;5026451;28;20388;-69
2022/11/09 12:35:19;;;;;;;;;;;16.30;70.30;;;;;;5020621;28;19916;-71
2022/11/09 12:37:57;;;;;;;;;;;16.00;69.20;;;;;;5022066;28;19991;-69
2022/11/09 12:40:29;;;;;;;;;;;16.10;69.80;;;;;;5027627;28;19959;-70
2022/11/09 12:43:00;;;;;;;;;;;16.00;70.40;;;;;;5025419;28;19909;-69
2022/11/09 12:45:31;;;;;;;;;;;16.10;71.20;;;;;;5000136;28;19921;-71
2022/11/09 12:47:59;;;;;;;;;;;15.90;71.70;;;;;;5023343;28;19933;-71
2022/11/09 12:50:25;;;;;;;;;;;15.80;71.30;;;;;;5029899;28;20272;-73
2022/11/09 12:52:51;;;;;;;;;;;16.40;71.10;;;;;;5010184;28;19913;-70
2022/11/09 12:55:29;;;;;;;;;;;16.80;69.10;;;;;;5029521;28;19913;-73
2022/11/09 12:57:54;;;;;;;;;;;17.00;68.80;;;;;;5024403;28;20342;-69
2022/11/09 13:00:44;;;;;;;;;;;16.90;69.40;;;;;;5035230;28;19951;-70
2022/11/09 13:03:27;;;;;;;;;;;16.60;67.90;;;;;;5029424;28;19909;-71
2022/11/09 13:06:19;;;;;;;;;;;16.90;67.90;;;;;;5026541;28;20344;-69
2022/11/09 13:08:56;;;;;;;;;;;16.80;67.30;;;;;;5025230;28;19923;-70
2022/11/09 13:11:27;;;;;;;;;;;17.10;66.70;;;;;;5031658;28;19912;-70
2022/11/09 13:14:12;;;;;;;;;;;17.20;65.90;;;;;;5029255;28;19913;-73
2022/11/09 13:16:38;;;;;;;;;;;17.30;65.20;;;;;;5029412;28;19913;-69
2022/11/09 13:19:06;;;;;;;;;;;17.50;64.30;;;;;;5012082;28;19931;-69
2022/11/09 13:21:32;;;;;;;;;;;17.90;64.50;;;;;;5030864;28;19913;-73
2022/11/09 13:24:18;;;;;;;;;;;18.00;63.10;;;;;;5028096;28;19917;-72
2022/11/09 13:26:46;;;;;;;;;;;17.70;63.60;;;;;;5030982;28;19916;-70
2022/11/09 13:29:17;;;;;;;;;;;17.80;63.80;;;;;;5030370;28;19913;-71
2022/11/09 13:32:03;;;;;;;;;;;17.70;63.40;;;;;;5029389;28;20393;-70
2022/11/09 13:34:44;;;;;;;;;;;17.40;64.50;;;;;;5032078;28;20011;-69
2022/11/09 13:37:28;;;;;;;;;;;17.00;66.10;;;;;;5028596;28;19913;-70
2022/11/09 13:40:21;;;;;;;;;;;16.30;68.20;;;;;;5085543;27;19916;-70
2022/11/09 13:43:00;;;;;;;;;;;15.80;70.20;;;;;;5077534;28;19912;-74
2022/11/09 13:45:25;;;;;;;;;;;16.10;70.10;;;;;;5065337;28;19917;-69
2022/11/09 13:47:51;;;;;;;;;;;16.70;68.60;;;;;;5081807;28;20282;-70
2022/11/09 13:50:17;;;;;;;;;;;16.70;67.90;;;;;;5063087;28;19920;-69
2022/11/09 13:52:48;;;;;;;;;;;17.00;68.10;;;;;;5056722;28;20386;-72
2022/11/09 13:55:32;;;;;;;;;;;17.00;67.70;;;;;;5072599;28;19931;-70
2022/11/09 13:57:59;;;;;;;;;;;16.80;67.70;;;;;;5074835;28;20007;-70
2022/11/09 14:00:25;;;;;;;;;;;16.70;66.80;;;;;;5071458;28;20378;-70
2022/11/09 14:02:52;;;;;;;;;;;16.10;69.10;;;;;;5067101;28;19967;-70
2022/11/09 14:05:31;;;;;;;;;;;15.80;70.00;;;;;;5075885;28;19913;-68
2022/11/09 14:07:58;;;;;;;;;;;15.40;71.80;;;;;;5067639;28;20364;-68
2022/11/09 14:10:23;;;;;;;;;;;15.20;72.50;;;;;;5066814;28;19967;-68
2022/11/09 14:13:07;;;;;;;;;;;14.90;73.50;;;;;;5071636;28;19948;-68
2022/11/09 14:15:54;;;;;;;;;;;14.70;74.30;;;;;;5069022;28;19928;-67
2022/11/09 14:18:32;;;;;;;;;;;14.50;75.20;;;;;;5059835;28;20396;-69
2022/11/09 14:21:24;;;;;;;;;;;14.50;75.50;;;;;;5061035;28;19912;-67
2022/11/09 14:23:49;;;;;;;;;;;14.40;75.90;;;;;;5062957;28;19962;-68